createdAt,value
2018-05-07T00:00:18.340Z,2.40
2018-05-07T00:02:46.716Z,2.40
2018-05-07T00:05:14.957Z,2.70
2018-05-07T00:07:44.023Z,2.20
2018-05-07T00:10:12.256Z,2.47
2018-05-07T00:12:40.512Z,2.17
2018-05-07T00:15:08.809Z,2.30
2018-05-07T00:17:37.089Z,2.13
2018-05-07T00:20:05.343Z,2.43
2018-05-07T00:22:33.609Z,2.10
2018-05-07T00:25:01.916Z,2.63
2018-05-07T00:27:30.159Z,2.50
2018-05-07T00:29:59.172Z,2.40
2018-05-07T00:32:27.467Z,2.53
2018-05-07T00:34:55.763Z,2.20
2018-05-07T00:37:24.042Z,2.70
2018-05-07T00:39:53.796Z,2.50
2018-05-07T00:42:22.036Z,2.50
2018-05-07T00:44:51.944Z,2.67
2018-05-07T00:47:20.943Z,2.50
2018-05-07T00:49:49.186Z,2.30
2018-05-07T00:52:17.427Z,3.13
2018-05-07T00:54:57.808Z,2.60
2018-05-07T00:57:26.084Z,2.63
2018-05-07T00:59:54.355Z,2.60
2018-05-07T01:02:22.648Z,2.57
2018-05-07T01:04:51.011Z,2.50
2018-05-07T01:07:19.283Z,2.67
2018-05-07T01:09:47.561Z,2.30
2018-05-07T01:12:15.884Z,2.10
2018-05-07T01:14:44.244Z,3.00
2018-05-07T01:17:12.598Z,2.50
2018-05-07T01:19:40.873Z,2.30
2018-05-07T01:22:09.120Z,2.50
2018-05-07T01:24:37.430Z,2.30
2018-05-07T01:27:05.677Z,2.47
2018-05-07T01:29:33.916Z,2.33
2018-05-07T01:32:02.257Z,2.57
2018-05-07T01:34:30.528Z,2.90
2018-05-07T01:36:58.794Z,2.73
2018-05-07T01:39:27.037Z,2.53
2018-05-07T01:41:56.178Z,2.50
2018-05-07T01:44:24.428Z,2.70
2018-05-07T01:46:52.693Z,2.75
2018-05-07T01:49:20.936Z,2.60
2018-05-07T01:51:49.194Z,2.57
2018-05-07T01:54:17.435Z,2.80
2018-05-07T01:56:45.719Z,2.12
2018-05-07T01:59:13.981Z,2.40
2018-05-07T02:01:42.241Z,2.80
2018-05-07T02:04:10.510Z,2.90
2018-05-07T02:06:38.787Z,2.20
2018-05-07T02:09:07.095Z,2.70
2018-05-07T02:11:35.348Z,2.67
2018-05-07T02:14:03.631Z,2.80
2018-05-07T02:16:31.885Z,2.70
2018-05-07T02:19:00.913Z,2.80
2018-05-07T02:21:29.169Z,2.83
2018-05-07T02:23:57.473Z,2.72
2018-05-07T02:26:25.742Z,2.90
2018-05-07T02:28:53.997Z,2.90
2018-05-07T02:31:22.266Z,2.37
2018-05-07T02:33:51.273Z,2.85
2018-05-07T02:36:19.522Z,3.05
2018-05-07T02:38:48.572Z,3.62
2018-05-07T02:41:16.823Z,3.20
2018-05-07T02:43:45.072Z,2.90
2018-05-07T02:46:13.389Z,2.80
2018-05-07T02:48:41.773Z,3.42
2018-05-07T02:51:10.140Z,2.90
2018-05-07T02:53:38.379Z,3.20
2018-05-07T02:56:06.683Z,3.10
2018-05-07T02:58:34.915Z,2.83
2018-05-07T03:01:03.961Z,3.20
2018-05-07T03:03:32.204Z,3.20
2018-05-07T03:06:00.512Z,2.70
2018-05-07T03:08:28.760Z,3.28
2018-05-07T03:10:57.025Z,2.90
2018-05-07T03:13:25.349Z,3.12
2018-05-07T03:15:53.617Z,3.42
2018-05-07T03:18:21.882Z,3.20
2018-05-07T03:20:50.136Z,3.40
2018-05-07T03:23:19.376Z,3.37
2018-05-07T03:25:47.645Z,3.43
2018-05-07T03:28:15.901Z,3.47
2018-05-07T03:30:44.225Z,2.67
2018-05-07T03:33:12.569Z,3.25
2018-05-07T03:35:40.811Z,3.28
2018-05-07T03:38:09.078Z,3.80
2018-05-07T03:40:37.476Z,3.80
2018-05-07T03:43:05.668Z,3.55
2018-05-07T03:45:33.916Z,3.75
2018-05-07T03:48:02.236Z,3.05
2018-05-07T03:50:30.619Z,2.92
2018-05-07T03:52:58.869Z,2.90
2018-05-07T03:55:27.140Z,3.70
2018-05-07T03:57:55.392Z,3.45
2018-05-07T04:00:23.691Z,3.15
2018-05-07T04:02:51.967Z,3.78
2018-05-07T04:05:21.069Z,3.97
2018-05-07T04:07:49.347Z,3.17
2018-05-07T04:10:17.592Z,3.40
2018-05-07T04:12:45.823Z,3.40
2018-05-07T04:15:14.879Z,3.35
2018-05-07T04:17:55.043Z,3.50
2018-05-07T04:20:35.067Z,3.77
2018-05-07T04:23:15.231Z,4.40
2018-05-07T04:25:44.425Z,4.63
2018-05-07T04:28:12.671Z,3.90
2018-05-07T04:30:41.679Z,3.60
2018-05-07T04:33:09.920Z,3.70
2018-05-07T04:35:38.171Z,3.50
2018-05-07T04:38:06.413Z,3.90
2018-05-07T04:40:34.728Z,3.40
2018-05-07T04:43:02.975Z,3.63
2018-05-07T04:45:31.260Z,4.00
2018-05-07T04:47:59.506Z,3.50
2018-05-07T04:50:28.501Z,3.80
2018-05-07T04:52:56.809Z,3.70
2018-05-07T04:55:25.051Z,3.87
2018-05-07T04:57:53.369Z,3.63
2018-05-07T05:00:21.669Z,3.67
2018-05-07T05:02:49.902Z,3.70
2018-05-07T05:05:18.192Z,4.00
2018-05-07T05:07:46.457Z,4.10
2018-05-07T05:10:14.709Z,4.57
2018-05-07T05:12:43.013Z,4.43
2018-05-07T05:15:11.324Z,5.10
2018-05-07T05:17:39.565Z,4.50
2018-05-07T05:20:07.811Z,5.10
2018-05-07T05:22:36.059Z,5.17
2018-05-07T05:25:04.305Z,4.00
2018-05-07T05:27:32.665Z,4.13
2018-05-07T05:30:00.946Z,4.30
2018-05-07T05:32:29.203Z,4.67
2018-05-07T05:34:57.473Z,4.63
2018-05-07T05:37:25.715Z,4.50
2018-05-07T05:39:54.759Z,4.90
2018-05-07T05:42:23.011Z,4.90
2018-05-07T05:44:51.516Z,5.70
2018-05-07T05:47:19.752Z,5.30
2018-05-07T05:49:48.760Z,5.07
2018-05-07T05:52:16.999Z,4.33
2018-05-07T05:54:45.244Z,5.20
2018-05-07T05:57:13.495Z,5.10
2018-05-07T05:59:41.773Z,5.67
2018-05-07T06:02:10.017Z,5.13
2018-05-07T06:04:39.037Z,5.37
2018-05-07T06:07:07.329Z,5.40
2018-05-07T06:09:35.573Z,4.80
2018-05-07T06:12:04.059Z,4.90
2018-05-07T06:14:33.167Z,4.50
2018-05-07T06:17:01.286Z,4.40
2018-05-07T06:19:29.543Z,4.47
2018-05-07T06:21:57.783Z,4.60
2018-05-07T06:24:26.080Z,4.60
2018-05-07T06:26:54.340Z,4.80
2018-05-07T06:29:22.659Z,4.60
2018-05-07T06:31:50.889Z,5.13
2018-05-07T06:34:19.172Z,4.33
2018-05-07T06:36:48.152Z,4.50
2018-05-07T06:39:16.446Z,4.17
2018-05-07T06:41:44.688Z,4.20
2018-05-07T06:44:12.983Z,4.60
2018-05-07T06:46:41.275Z,4.53
2018-05-07T06:49:09.549Z,4.93
2018-05-07T06:51:37.812Z,4.23
2018-05-07T06:54:06.048Z,4.27
2018-05-07T06:56:35.084Z,5.93
2018-05-07T06:59:03.323Z,4.50
2018-05-07T07:01:32.413Z,4.33
2018-05-07T07:04:00.590Z,4.90
2018-05-07T07:06:28.836Z,4.23
2018-05-07T07:08:57.075Z,4.33
2018-05-07T07:11:25.341Z,4.63
2018-05-07T07:13:53.641Z,4.70
2018-05-07T07:16:21.939Z,4.13
2018-05-07T07:18:50.185Z,4.50
2018-05-07T07:21:18.456Z,4.80
2018-05-07T07:23:46.705Z,4.07
2018-05-07T07:26:15.704Z,4.40
2018-05-07T07:28:43.991Z,4.40
2018-05-07T07:31:12.267Z,5.00
2018-05-07T07:33:40.553Z,4.30
2018-05-07T07:36:08.786Z,5.10
2018-05-07T07:38:37.804Z,4.47
2018-05-07T07:41:06.057Z,4.90
2018-05-07T07:43:35.085Z,4.70
2018-05-07T07:46:03.321Z,4.57
2018-05-07T07:48:32.427Z,4.50
2018-05-07T07:51:01.488Z,5.10
2018-05-07T07:53:29.725Z,4.53
2018-05-07T07:55:58.007Z,4.43
2018-05-07T07:58:26.247Z,4.50
2018-05-07T08:00:54.557Z,5.17
2018-05-07T08:03:22.795Z,4.43
2018-05-07T08:05:51.140Z,4.67
2018-05-07T08:08:19.381Z,5.37
2018-05-07T08:10:47.647Z,5.00
2018-05-07T08:13:15.933Z,4.73
2018-05-07T08:15:44.195Z,4.27
2018-05-07T08:18:12.480Z,4.60
2018-05-07T08:20:40.761Z,4.20
2018-05-07T08:23:09.045Z,4.13
2018-05-07T08:25:37.284Z,3.50
2018-05-07T08:28:05.523Z,3.10
2018-05-07T08:30:33.866Z,3.13
2018-05-07T08:33:02.066Z,3.10
2018-05-07T08:35:30.304Z,3.37
2018-05-07T08:37:58.590Z,3.27
2018-05-07T08:40:26.862Z,3.60
2018-05-07T08:42:55.123Z,3.20
2018-05-07T08:45:23.417Z,3.60
2018-05-07T08:47:51.675Z,3.37
2018-05-07T08:50:20.018Z,3.80
2018-05-07T08:52:49.098Z,3.83
2018-05-07T08:55:17.422Z,3.40
2018-05-07T08:57:45.676Z,4.13
2018-05-07T09:00:13.980Z,3.70
2018-05-07T09:02:42.242Z,3.47
2018-05-07T09:05:10.491Z,4.27
2018-05-07T09:07:39.504Z,4.40
2018-05-07T09:10:07.773Z,4.40
2018-05-07T09:12:36.046Z,4.23
2018-05-07T09:15:05.046Z,4.10
2018-05-07T09:17:33.297Z,4.17
2018-05-07T09:20:02.319Z,3.70
2018-05-07T09:22:30.620Z,4.10
2018-05-07T09:24:59.876Z,3.77
2018-05-07T09:27:28.876Z,4.40
2018-05-07T09:29:58.039Z,4.27
2018-05-07T09:32:26.260Z,4.63
2018-05-07T09:34:54.568Z,4.43
2018-05-07T09:37:22.804Z,3.73
2018-05-07T09:39:51.111Z,4.73
2018-05-07T09:42:19.369Z,4.60
2018-05-07T09:44:47.658Z,3.90
2018-05-07T09:47:15.937Z,3.57
2018-05-07T09:49:44.185Z,4.30
2018-05-07T09:52:12.491Z,3.73
2018-05-07T09:54:40.756Z,4.07
2018-05-07T09:57:09.004Z,4.00
2018-05-07T09:59:37.332Z,3.87
2018-05-07T10:02:05.584Z,3.70
2018-05-07T10:04:33.839Z,4.63
2018-05-07T10:07:02.082Z,4.20
2018-05-07T10:09:31.114Z,4.07
2018-05-07T10:11:59.403Z,3.73
2018-05-07T10:14:27.705Z,3.97
2018-05-07T10:16:55.943Z,4.40
2018-05-07T10:19:24.184Z,3.60
2018-05-07T10:21:53.195Z,4.20
2018-05-07T10:24:22.226Z,4.50
2018-05-07T10:26:50.489Z,4.27
2018-05-07T10:29:18.768Z,4.90
2018-05-07T10:31:47.011Z,4.30
2018-05-07T10:34:16.027Z,4.77
2018-05-07T10:36:44.333Z,5.70
2018-05-07T10:39:12.577Z,4.70
2018-05-07T10:41:40.863Z,4.47
2018-05-07T10:44:09.103Z,3.70
2018-05-07T10:46:38.133Z,3.60
2018-05-07T10:49:06.474Z,3.33
2018-05-07T10:51:34.677Z,3.20
2018-05-07T10:54:02.964Z,3.27
2018-05-07T10:56:31.194Z,3.10
2018-05-07T10:59:00.229Z,2.90
2018-05-07T11:01:28.526Z,2.73
2018-05-07T11:03:56.740Z,3.33
2018-05-07T11:06:25.744Z,2.60
2018-05-07T11:08:54.757Z,2.93
2018-05-07T11:11:23.725Z,3.60
2018-05-07T11:13:52.735Z,3.30
2018-05-07T11:16:20.978Z,2.83
2018-05-07T11:18:49.987Z,3.20
2018-05-07T11:21:18.228Z,2.80
2018-05-07T11:23:46.578Z,2.73
2018-05-07T11:26:14.820Z,3.97
2018-05-07T11:28:43.120Z,3.27
2018-05-07T11:31:12.501Z,5.03
2018-05-07T11:33:40.649Z,3.93
2018-05-07T11:36:09.657Z,3.57
2018-05-07T11:38:37.894Z,4.00
2018-05-07T11:41:06.143Z,3.50
2018-05-07T11:43:34.379Z,3.40
2018-05-07T11:46:02.646Z,2.83
2018-05-07T11:48:31.697Z,3.03
2018-05-07T11:50:59.952Z,3.07
2018-05-07T11:53:28.267Z,3.17
2018-05-07T11:55:56.495Z,3.70
2018-05-07T11:58:24.785Z,2.70
2018-05-07T12:00:53.779Z,2.90
2018-05-07T12:03:22.034Z,2.97
2018-05-07T12:05:50.318Z,3.53
2018-05-07T12:08:18.567Z,2.63
2018-05-07T12:10:48.780Z,2.83
2018-05-07T12:13:17.104Z,2.90
2018-05-07T12:15:45.396Z,2.90
2018-05-07T12:18:13.810Z,3.27
2018-05-07T12:20:41.986Z,3.00
2018-05-07T12:23:12.421Z,2.77
2018-05-07T12:25:40.645Z,3.30
2018-05-07T12:28:08.905Z,3.17
2018-05-07T12:30:37.153Z,2.90
2018-05-07T12:33:05.411Z,2.97
2018-05-07T12:35:34.417Z,2.70
2018-05-07T12:38:02.721Z,2.73
2018-05-07T12:40:30.988Z,2.63
2018-05-07T12:42:59.277Z,2.00
2018-05-07T12:45:27.540Z,2.17
2018-05-07T12:47:55.784Z,2.33
2018-05-07T12:50:24.797Z,2.67
2018-05-07T12:52:53.046Z,2.90
2018-05-07T12:55:22.085Z,2.30
2018-05-07T12:57:50.351Z,2.43
2018-05-07T13:00:18.670Z,1.93
2018-05-07T13:02:46.905Z,2.27
2018-05-07T13:05:15.149Z,2.10
2018-05-07T13:07:44.181Z,2.77
2018-05-07T13:10:12.452Z,2.70
2018-05-07T13:12:40.732Z,2.57
2018-05-07T13:15:09.003Z,2.60
2018-05-07T13:17:38.031Z,2.40
2018-05-07T13:20:06.290Z,3.37
2018-05-07T13:22:34.544Z,2.53
2018-05-07T13:25:02.821Z,2.47
2018-05-07T13:27:31.065Z,2.20
2018-05-07T13:30:00.090Z,2.43
2018-05-07T13:32:28.367Z,2.80
2018-05-07T13:34:56.619Z,2.90
2018-05-07T13:37:24.865Z,2.60
2018-05-07T13:39:53.904Z,3.00
2018-05-07T13:42:22.185Z,2.77
2018-05-07T13:44:50.457Z,2.70
2018-05-07T13:47:18.699Z,2.70
2018-05-07T13:49:47.003Z,2.83
2018-05-07T13:52:15.250Z,3.00
2018-05-07T13:54:44.280Z,3.40
2018-05-07T13:57:12.537Z,3.07
2018-05-07T13:59:40.771Z,2.80
2018-05-07T14:02:09.100Z,2.57
2018-05-07T14:04:37.381Z,3.13
2018-05-07T14:07:05.628Z,3.47
2018-05-07T14:09:33.872Z,3.00
2018-05-07T14:12:02.124Z,3.40
2018-05-07T14:14:30.399Z,2.67
2018-05-07T14:16:58.655Z,3.00
2018-05-07T14:19:26.911Z,2.70
2018-05-07T14:21:55.225Z,3.10
2018-05-07T14:24:23.485Z,2.80
2018-05-07T14:26:51.758Z,2.40
2018-05-07T14:29:20.000Z,3.03
2018-05-07T14:31:49.006Z,3.13
2018-05-07T14:34:17.249Z,3.20
2018-05-07T14:36:46.264Z,3.60
2018-05-07T14:39:14.526Z,2.60
2018-05-07T14:41:43.600Z,2.97
2018-05-07T14:44:11.827Z,2.80
2018-05-07T14:46:40.081Z,3.13
2018-05-07T14:49:08.340Z,2.60
2018-05-07T14:51:37.273Z,2.50
2018-05-07T14:54:05.530Z,2.47
2018-05-07T14:56:33.815Z,2.37
2018-05-07T14:59:02.068Z,2.50
2018-05-07T15:01:31.099Z,2.40
2018-05-07T15:03:59.361Z,2.33
2018-05-07T15:06:27.595Z,2.43
2018-05-07T15:08:56.612Z,2.23
2018-05-07T15:11:24.919Z,2.07
2018-05-07T15:14:05.277Z,1.93
2018-05-07T15:16:33.516Z,2.13
2018-05-07T15:19:02.546Z,1.80
2018-05-07T15:21:30.797Z,2.00
2018-05-07T15:23:59.066Z,1.70
2018-05-07T15:26:28.056Z,1.83
2018-05-07T15:28:56.298Z,2.03
2018-05-07T15:31:24.539Z,2.17
2018-05-07T15:33:52.775Z,1.90
2018-05-07T15:36:21.870Z,1.33
2018-05-07T15:38:50.185Z,1.87
2018-05-07T15:41:18.428Z,1.97
2018-05-07T15:43:46.762Z,1.90
2018-05-07T15:46:15.020Z,1.70
2018-05-07T15:48:43.288Z,1.60
2018-05-07T15:51:11.561Z,1.50
2018-05-07T15:53:39.833Z,2.00
2018-05-07T15:56:08.073Z,1.40
2018-05-07T15:58:37.091Z,1.57
2018-05-07T16:01:05.341Z,1.50
2018-05-07T16:03:34.404Z,1.77
2018-05-07T16:06:02.644Z,2.00
2018-05-07T16:08:30.919Z,1.70
2018-05-07T16:10:59.166Z,1.97
2018-05-07T16:13:28.175Z,1.90
2018-05-07T16:15:56.417Z,1.73
2018-05-07T16:18:25.473Z,1.50
2018-05-07T16:20:53.821Z,1.63
2018-05-07T16:23:22.264Z,1.80
2018-05-07T16:25:50.307Z,1.43
2018-05-07T16:28:18.668Z,1.67
2018-05-07T16:30:46.833Z,1.53
2018-05-07T16:33:15.109Z,1.60
2018-05-07T16:35:43.398Z,1.37
2018-05-07T16:38:12.378Z,1.50
2018-05-07T16:40:40.616Z,1.60
2018-05-07T16:43:09.653Z,1.43
2018-05-07T16:45:37.906Z,1.23
2018-05-07T16:48:06.164Z,1.37
2018-05-07T16:50:35.189Z,1.40
2018-05-07T16:53:03.427Z,1.57
2018-05-07T16:55:32.440Z,1.47
2018-05-07T16:58:01.299Z,1.43
2018-05-07T17:00:29.619Z,1.30
2018-05-07T17:02:57.865Z,1.30
2018-05-07T17:05:26.881Z,1.50
2018-05-07T17:07:55.321Z,1.67
2018-05-07T17:10:23.453Z,1.33
2018-05-07T17:12:51.735Z,1.70
2018-05-07T17:15:19.991Z,1.50
2018-05-07T17:17:48.245Z,1.60
2018-05-07T17:20:17.264Z,1.43
2018-05-07T17:22:45.560Z,1.50
2018-05-07T17:25:13.824Z,1.73
2018-05-07T17:27:42.076Z,1.90
2018-05-07T17:30:10.330Z,1.60
2018-05-07T17:32:40.848Z,1.60
2018-05-07T17:35:09.851Z,1.67
2018-05-07T17:37:38.859Z,1.60
2018-05-07T17:40:07.161Z,1.63
2018-05-07T17:42:35.427Z,1.60
2018-05-07T17:45:15.607Z,1.50
2018-05-07T17:47:55.941Z,1.23
2018-05-07T17:50:24.215Z,1.40
2018-05-07T17:52:52.452Z,1.40
2018-05-07T17:55:21.451Z,1.30
2018-05-07T17:57:50.481Z,1.40
2018-05-07T18:00:18.719Z,1.60
2018-05-07T18:02:47.736Z,1.30
2018-05-07T18:05:15.967Z,1.63
2018-05-07T18:07:44.291Z,1.67
2018-05-07T18:10:12.576Z,1.60
2018-05-07T18:12:40.956Z,1.40
2018-05-07T18:15:09.229Z,1.60
2018-05-07T18:17:37.474Z,1.83
2018-05-07T18:20:05.725Z,1.60
2018-05-07T18:22:33.961Z,1.47
2018-05-07T18:25:02.227Z,1.70
2018-05-07T18:27:30.505Z,1.40
2018-05-07T18:29:58.743Z,1.87
2018-05-07T18:32:27.006Z,1.93
2018-05-07T18:34:56.741Z,2.10
2018-05-07T18:37:24.984Z,1.97
2018-05-07T18:39:54.020Z,1.90
2018-05-07T18:42:22.295Z,2.27
2018-05-07T18:44:50.543Z,2.03
2018-05-07T18:47:19.547Z,2.27
2018-05-07T18:49:47.784Z,2.00
2018-05-07T18:52:16.033Z,1.90
2018-05-07T18:54:44.283Z,1.83
2018-05-07T18:57:12.579Z,2.67
2018-05-07T18:59:40.953Z,2.30
2018-05-07T19:02:09.202Z,2.30
2018-05-07T19:04:37.436Z,2.30
2018-05-07T19:07:05.682Z,2.10
2018-05-07T19:09:33.949Z,2.53
2018-05-07T19:12:02.192Z,2.90
2018-05-07T19:14:30.486Z,2.23
2018-05-07T19:16:58.771Z,2.30
2018-05-07T19:19:27.013Z,2.10
2018-05-07T19:21:56.037Z,2.00
2018-05-07T19:24:24.358Z,2.20
2018-05-07T19:26:52.590Z,2.00
2018-05-07T19:29:21.428Z,1.90
2018-05-07T19:31:49.664Z,1.70
2018-05-07T19:34:17.928Z,1.97
2018-05-07T19:36:46.214Z,1.93
2018-05-07T19:39:14.471Z,1.90
2018-05-07T19:41:42.737Z,2.00
2018-05-07T19:44:11.019Z,1.63
2018-05-07T19:46:39.277Z,1.80
2018-05-07T19:49:07.599Z,1.90
2018-05-07T19:51:35.861Z,1.83
2018-05-07T19:54:04.093Z,1.90
2018-05-07T19:56:33.109Z,1.80
2018-05-07T19:59:01.409Z,2.10
2018-05-07T20:01:29.684Z,2.10
2018-05-07T20:03:58.016Z,2.10
2018-05-07T20:06:26.225Z,1.90
2018-05-07T20:08:54.502Z,2.07
2018-05-07T20:11:22.753Z,2.00
2018-05-07T20:13:51.004Z,2.00
2018-05-07T20:16:20.018Z,1.60
2018-05-07T20:18:48.260Z,1.70
2018-05-07T20:21:16.500Z,1.87
2018-05-07T20:23:44.774Z,1.90
2018-05-07T20:26:13.049Z,2.90
2018-05-07T20:28:41.326Z,2.23
2018-05-07T20:31:09.588Z,2.07
2018-05-07T20:33:37.825Z,2.13
2018-05-07T20:36:06.902Z,2.00
2018-05-07T20:38:35.146Z,1.80
2018-05-07T20:41:03.421Z,2.10
2018-05-07T20:43:31.700Z,1.83
2018-05-07T20:45:59.944Z,2.47
2018-05-07T20:48:28.190Z,1.80
2018-05-07T20:50:57.245Z,2.00
2018-05-07T20:53:25.485Z,1.93
2018-05-07T20:55:53.732Z,2.10
2018-05-07T20:58:22.778Z,2.10
2018-05-07T21:00:51.156Z,1.80
2018-05-07T21:03:19.388Z,1.93
2018-05-07T21:05:48.441Z,1.90
2018-05-07T21:08:16.805Z,1.90
2018-05-07T21:10:45.072Z,1.70
2018-05-07T21:13:13.374Z,1.90
2018-05-07T21:15:41.637Z,1.70
2018-05-07T21:18:09.879Z,1.70
2018-05-07T21:20:38.123Z,1.97
2018-05-07T21:23:07.154Z,1.80
2018-05-07T21:25:35.405Z,1.90
2018-05-07T21:28:04.436Z,1.90
2018-05-07T21:30:32.721Z,1.90
2018-05-07T21:33:00.984Z,1.80
2018-05-07T21:35:29.278Z,1.70
2018-05-07T21:37:57.550Z,1.90
2018-05-07T21:40:25.784Z,1.77
2018-05-07T21:42:54.091Z,2.33
2018-05-07T21:45:22.331Z,1.83
2018-05-07T21:47:51.338Z,1.80
2018-05-07T21:50:19.596Z,1.87
2018-05-07T21:52:48.603Z,1.60
2018-05-07T21:55:16.911Z,1.77
2018-05-07T21:57:45.181Z,2.00
2018-05-07T22:00:13.437Z,1.83
2018-05-07T22:02:41.680Z,1.93
2018-05-07T22:05:10.713Z,2.00
2018-05-07T22:07:38.967Z,1.83
2018-05-07T22:10:07.220Z,2.00
2018-05-07T22:12:35.528Z,1.93
2018-05-07T22:15:03.772Z,1.80
2018-05-07T22:17:32.783Z,2.17
2018-05-07T22:20:01.041Z,1.80
2018-05-07T22:22:30.058Z,1.73
2018-05-07T22:24:59.067Z,2.07
2018-05-07T22:27:27.321Z,2.13
2018-05-07T22:29:55.620Z,1.90
2018-05-07T22:32:23.869Z,1.87
2018-05-07T22:34:52.903Z,1.87
2018-05-07T22:37:21.702Z,2.10
2018-05-07T22:39:50.035Z,2.20
2018-05-07T22:42:18.240Z,2.17
2018-05-07T22:44:46.507Z,2.10
2018-05-07T22:47:14.755Z,2.10
2018-05-07T22:49:43.129Z,2.27
2018-05-07T22:52:11.432Z,2.13
2018-05-07T22:54:39.587Z,1.80
2018-05-07T22:57:07.900Z,1.97
2018-05-07T22:59:36.365Z,2.40
2018-05-07T23:02:04.643Z,2.10
2018-05-07T23:04:32.893Z,2.03
2018-05-07T23:07:01.211Z,2.17
2018-05-07T23:09:29.443Z,2.20
2018-05-07T23:11:57.696Z,2.13
2018-05-07T23:14:25.931Z,2.50
2018-05-07T23:16:54.185Z,2.37
2018-05-07T23:19:22.431Z,2.60
2018-05-07T23:21:52.027Z,2.00
2018-05-07T23:24:20.364Z,1.90
2018-05-07T23:26:48.630Z,2.87
2018-05-07T23:29:16.921Z,2.37
2018-05-07T23:31:45.195Z,2.27
2018-05-07T23:34:13.468Z,2.57
2018-05-07T23:36:41.742Z,2.80
2018-05-07T23:39:09.975Z,2.80
2018-05-07T23:41:38.279Z,2.50
2018-05-07T23:44:06.559Z,2.63
2018-05-07T23:46:34.837Z,2.33
2018-05-07T23:49:03.089Z,2.70
2018-05-07T23:51:31.337Z,2.47
2018-05-07T23:54:00.389Z,2.47
2018-05-07T23:56:28.628Z,2.57
2018-05-07T23:58:56.886Z,2.60
